createdAt,value
2017-02-20T00:00:41.464Z,0
2017-02-20T00:01:52.909Z,0
2017-02-20T00:03:04.340Z,0
2017-02-20T00:04:15.775Z,0
2017-02-20T00:05:27.227Z,0
2017-02-20T00:06:38.675Z,0
2017-02-20T00:07:50.134Z,0
2017-02-20T00:09:01.763Z,0
2017-02-20T00:10:13.404Z,0
2017-02-20T00:11:24.850Z,0
2017-02-20T00:12:36.346Z,0
2017-02-20T00:13:47.792Z,0
2017-02-20T00:14:59.235Z,0
2017-02-20T00:16:10.679Z,0
2017-02-20T00:17:22.126Z,0
2017-02-20T00:18:33.796Z,0
2017-02-20T00:19:45.231Z,0
2017-02-20T00:20:56.657Z,0
2017-02-20T00:22:08.094Z,0
2017-02-20T00:23:19.592Z,0
2017-02-20T00:24:31.227Z,0
2017-02-20T00:25:42.679Z,0
2017-02-20T00:26:54.108Z,0
2017-02-20T00:28:05.734Z,0
2017-02-20T00:29:17.380Z,0
2017-02-20T00:30:29.026Z,0
2017-02-20T00:31:40.450Z,0
2017-02-20T00:32:51.879Z,0
2017-02-20T00:34:03.363Z,0
2017-02-20T00:35:15.023Z,0
2017-02-20T00:36:26.454Z,0
2017-02-20T00:37:37.886Z,0
2017-02-20T00:38:49.313Z,0
2017-02-20T00:40:00.755Z,0
2017-02-20T00:41:12.193Z,0
2017-02-20T00:42:24.031Z,0
2017-02-20T00:43:35.696Z,0
2017-02-20T00:44:47.189Z,0
2017-02-20T00:45:58.645Z,0
2017-02-20T00:47:10.122Z,0
2017-02-20T00:48:21.562Z,0
2017-02-20T00:49:33.014Z,0
2017-02-20T00:50:44.467Z,0
2017-02-20T00:51:55.912Z,0
2017-02-20T00:53:07.337Z,0
2017-02-20T00:54:18.772Z,0
2017-02-20T00:55:30.255Z,0
2017-02-20T00:56:41.708Z,0
2017-02-20T00:57:53.129Z,0
2017-02-20T00:59:04.573Z,0
2017-02-20T01:00:16.020Z,0
2017-02-20T01:01:27.458Z,0
2017-02-20T01:02:38.905Z,0
2017-02-20T01:03:50.344Z,0
2017-02-20T01:05:01.790Z,0
2017-02-20T01:06:13.292Z,0
2017-02-20T01:07:24.733Z,0
2017-02-20T01:08:36.181Z,0
2017-02-20T01:09:47.619Z,0
2017-02-20T01:10:59.057Z,0
2017-02-20T01:12:10.487Z,0
2017-02-20T01:13:21.923Z,0
2017-02-20T01:14:33.365Z,0
2017-02-20T01:15:44.823Z,0
2017-02-20T01:16:56.292Z,0
2017-02-20T01:18:07.926Z,0
2017-02-20T01:19:19.352Z,0
2017-02-20T01:20:30.818Z,0
2017-02-20T01:21:42.457Z,0
2017-02-20T01:22:54.108Z,0
2017-02-20T01:24:05.562Z,0
2017-02-20T01:25:17.022Z,0
2017-02-20T01:26:28.463Z,0
2017-02-20T01:27:39.973Z,0
2017-02-20T01:28:51.403Z,0
2017-02-20T01:30:02.861Z,0
2017-02-20T01:31:14.295Z,0
2017-02-20T01:32:25.717Z,0
2017-02-20T01:33:37.138Z,0
2017-02-20T01:34:48.562Z,0
2017-02-20T01:36:00.015Z,0
2017-02-20T01:37:11.853Z,0
2017-02-20T01:38:23.284Z,0
2017-02-20T01:39:34.937Z,0
2017-02-20T01:40:46.387Z,0
2017-02-20T01:41:57.839Z,0
2017-02-20T01:43:09.480Z,0
2017-02-20T01:44:20.976Z,0
2017-02-20T01:45:32.426Z,0
2017-02-20T01:46:43.865Z,0
2017-02-20T01:47:55.317Z,0
2017-02-20T01:49:06.768Z,0
2017-02-20T01:50:18.388Z,0
2017-02-20T01:51:29.834Z,0
2017-02-20T01:52:41.262Z,0
2017-02-20T01:53:52.918Z,0
2017-02-20T01:55:04.399Z,0
2017-02-20T01:56:16.044Z,0
2017-02-20T01:57:27.676Z,0
2017-02-20T01:58:39.107Z,0
2017-02-20T01:59:50.551Z,0
2017-02-20T02:01:02.021Z,0
2017-02-20T02:02:13.446Z,0
2017-02-20T02:03:24.892Z,0
2017-02-20T02:04:36.538Z,0
2017-02-20T02:05:48.020Z,0
2017-02-20T02:06:59.452Z,0
2017-02-20T02:08:10.895Z,0
2017-02-20T02:09:22.334Z,0
2017-02-20T02:10:33.766Z,0
2017-02-20T02:11:45.198Z,0
2017-02-20T02:12:56.641Z,0
2017-02-20T02:14:08.073Z,0
2017-02-20T02:15:19.512Z,0
2017-02-20T02:16:31.005Z,0
2017-02-20T02:17:42.437Z,0
2017-02-20T02:18:53.868Z,0
2017-02-20T02:20:05.323Z,0
2017-02-20T02:21:16.763Z,0
2017-02-20T02:22:28.251Z,0
2017-02-20T02:23:39.694Z,0
2017-02-20T02:24:51.145Z,0
2017-02-20T02:26:02.573Z,0
2017-02-20T02:27:14.055Z,0
2017-02-20T02:28:25.490Z,0
2017-02-20T02:29:36.963Z,0
2017-02-20T02:30:48.399Z,0
2017-02-20T02:32:00.085Z,0
2017-02-20T02:33:11.553Z,0
2017-02-20T02:34:23.195Z,0
2017-02-20T02:35:34.623Z,0
2017-02-20T02:36:46.069Z,0
2017-02-20T02:37:57.564Z,0
2017-02-20T02:39:09.198Z,0
2017-02-20T02:40:20.629Z,0
2017-02-20T02:41:32.065Z,0
2017-02-20T02:42:43.493Z,0
2017-02-20T02:43:54.919Z,0
2017-02-20T02:45:06.373Z,0
2017-02-20T02:46:17.817Z,0
2017-02-20T02:47:29.464Z,0
2017-02-20T02:48:40.956Z,0
2017-02-20T02:49:52.399Z,0
2017-02-20T02:51:03.876Z,0
2017-02-20T02:52:15.308Z,0
2017-02-20T02:53:26.736Z,0
2017-02-20T02:54:38.366Z,0
2017-02-20T02:55:49.796Z,0
2017-02-20T02:57:01.245Z,0
2017-02-20T02:58:12.672Z,0
2017-02-20T02:59:24.160Z,0
2017-02-20T03:00:35.803Z,0
2017-02-20T03:01:47.431Z,0
2017-02-20T03:02:58.890Z,0
2017-02-20T03:04:10.540Z,0
2017-02-20T03:05:21.996Z,0
2017-02-20T03:06:33.463Z,0
2017-02-20T03:07:44.917Z,0
2017-02-20T03:08:56.357Z,0
2017-02-20T03:10:07.787Z,0
2017-02-20T03:11:19.218Z,0
2017-02-20T03:12:30.657Z,0
2017-02-20T03:13:42.312Z,0
2017-02-20T03:14:53.742Z,0
2017-02-20T03:16:05.236Z,0
2017-02-20T03:17:16.660Z,0
2017-02-20T03:18:28.100Z,0
2017-02-20T03:19:39.524Z,0
2017-02-20T03:20:50.970Z,0
2017-02-20T03:22:02.393Z,0
2017-02-20T03:23:13.820Z,0
2017-02-20T03:24:25.265Z,0
2017-02-20T03:25:36.705Z,0
2017-02-20T03:26:48.203Z,0
2017-02-20T03:27:59.646Z,0
2017-02-20T03:29:11.088Z,0
2017-02-20T03:30:22.513Z,0
2017-02-20T03:31:33.968Z,0
2017-02-20T03:32:45.415Z,0
2017-02-20T03:33:56.859Z,0
2017-02-20T03:35:08.298Z,0
2017-02-20T03:36:19.724Z,0
2017-02-20T03:37:31.203Z,0
2017-02-20T03:38:42.844Z,0
2017-02-20T03:39:54.284Z,0
2017-02-20T03:41:05.929Z,0
2017-02-20T03:42:17.362Z,0
2017-02-20T03:43:28.798Z,0
2017-02-20T03:44:40.259Z,0
2017-02-20T03:45:51.701Z,0
2017-02-20T03:47:03.366Z,0
2017-02-20T03:48:14.870Z,0
2017-02-20T03:49:26.343Z,0
2017-02-20T03:50:37.803Z,0
2017-02-20T03:51:49.440Z,0
2017-02-20T03:53:00.879Z,0
2017-02-20T03:54:12.320Z,0
2017-02-20T03:55:23.772Z,0
2017-02-20T03:56:35.225Z,0
2017-02-20T03:57:46.862Z,0
2017-02-20T03:58:58.336Z,0
2017-02-20T04:00:09.773Z,0
2017-02-20T04:01:21.207Z,0
2017-02-20T04:02:32.845Z,0
2017-02-20T04:03:44.502Z,0
2017-02-20T04:04:55.979Z,0
2017-02-20T04:06:07.431Z,0
2017-02-20T04:07:18.867Z,0
2017-02-20T04:08:30.304Z,0
2017-02-20T04:09:41.993Z,0
2017-02-20T04:10:53.426Z,0
2017-02-20T04:12:04.857Z,0
2017-02-20T04:13:16.291Z,0
2017-02-20T04:14:27.716Z,0
2017-02-20T04:15:39.156Z,0
2017-02-20T04:16:50.796Z,0
2017-02-20T04:18:02.229Z,0
2017-02-20T04:19:13.870Z,0
2017-02-20T04:20:25.348Z,0
2017-02-20T04:21:36.792Z,0
2017-02-20T04:22:48.242Z,0
2017-02-20T04:23:59.886Z,0
2017-02-20T04:25:11.319Z,0
2017-02-20T04:26:22.756Z,0
2017-02-20T04:27:34.402Z,0
2017-02-20T04:28:45.840Z,0
2017-02-20T04:29:57.283Z,0
2017-02-20T04:31:08.788Z,0
2017-02-20T04:32:20.235Z,0
2017-02-20T04:33:31.673Z,0
2017-02-20T04:34:43.112Z,0
2017-02-20T04:35:54.561Z,0
2017-02-20T04:37:06.007Z,0
2017-02-20T04:38:17.451Z,0
2017-02-20T04:39:28.891Z,0
2017-02-20T04:40:40.537Z,0
2017-02-20T04:41:52.182Z,0
2017-02-20T04:43:03.605Z,0
2017-02-20T04:44:15.039Z,0
2017-02-20T04:45:26.488Z,0
2017-02-20T04:46:37.917Z,0
2017-02-20T04:47:49.398Z,0
2017-02-20T04:49:00.839Z,0
2017-02-20T04:50:12.267Z,0
2017-02-20T04:51:23.715Z,0
2017-02-20T04:52:35.154Z,0
2017-02-20T04:53:46.587Z,0
2017-02-20T04:54:58.020Z,0
2017-02-20T04:56:09.498Z,0
2017-02-20T04:57:20.948Z,0
2017-02-20T04:58:32.636Z,0
2017-02-20T04:59:44.286Z,0
2017-02-20T05:00:55.749Z,0
2017-02-20T05:02:07.182Z,0
2017-02-20T05:03:18.623Z,0
2017-02-20T05:04:30.154Z,0
2017-02-20T05:05:41.618Z,0
2017-02-20T05:06:53.046Z,0
2017-02-20T05:08:04.504Z,0
2017-02-20T05:09:15.998Z,0
2017-02-20T05:10:27.437Z,0
2017-02-20T05:11:38.866Z,0
2017-02-20T05:12:50.310Z,0
2017-02-20T05:14:01.756Z,0
2017-02-20T05:15:13.390Z,0
2017-02-20T05:16:24.827Z,0
2017-02-20T05:17:36.257Z,0
2017-02-20T05:18:47.682Z,0
2017-02-20T05:19:59.174Z,0
2017-02-20T05:21:10.623Z,0
2017-02-20T05:22:22.037Z,0
2017-02-20T05:23:33.471Z,0
2017-02-20T05:24:44.909Z,0
2017-02-20T05:25:56.405Z,0
2017-02-20T05:27:07.835Z,0
2017-02-20T05:28:19.288Z,0
2017-02-20T05:29:30.729Z,0
2017-02-20T05:30:42.231Z,0
2017-02-20T05:31:53.862Z,0
2017-02-20T05:33:05.326Z,0
2017-02-20T05:34:17.157Z,0
2017-02-20T05:35:28.589Z,0
2017-02-20T05:36:40.088Z,0
2017-02-20T05:37:51.535Z,0
2017-02-20T05:39:02.992Z,0
2017-02-20T05:40:14.421Z,0
2017-02-20T05:41:25.900Z,0
2017-02-20T05:42:37.331Z,0
2017-02-20T05:43:48.758Z,0
2017-02-20T05:45:00.391Z,0
2017-02-20T05:46:11.837Z,0
2017-02-20T05:47:23.284Z,0
2017-02-20T05:48:34.929Z,0
2017-02-20T05:49:46.356Z,0
2017-02-20T05:50:57.785Z,0
2017-02-20T05:52:09.315Z,0
2017-02-20T05:53:20.947Z,0
2017-02-20T05:54:32.580Z,0
2017-02-20T05:55:44.006Z,0
2017-02-20T05:56:55.433Z,0
2017-02-20T05:58:06.879Z,0
2017-02-20T05:59:18.520Z,0
2017-02-20T06:00:30.156Z,0
2017-02-20T06:01:41.653Z,0
2017-02-20T06:02:53.147Z,0
2017-02-20T06:04:04.592Z,0
2017-02-20T06:05:16.019Z,0
2017-02-20T06:06:27.468Z,0
2017-02-20T06:07:39.106Z,0
2017-02-20T06:08:50.549Z,0
2017-02-20T06:10:01.986Z,0
2017-02-20T06:11:13.435Z,0
2017-02-20T06:12:25.071Z,0
2017-02-20T06:13:36.555Z,0
2017-02-20T06:14:48.023Z,0
2017-02-20T06:15:59.466Z,0
2017-02-20T06:17:10.892Z,0
2017-02-20T06:18:22.560Z,0
2017-02-20T06:19:33.984Z,0
2017-02-20T06:20:45.433Z,0
2017-02-20T06:21:56.873Z,0
2017-02-20T06:23:08.310Z,0
2017-02-20T06:24:19.804Z,0
2017-02-20T06:25:31.249Z,0
2017-02-20T06:26:42.703Z,0
2017-02-20T06:27:54.351Z,0
2017-02-20T06:29:05.974Z,0
2017-02-20T06:30:17.481Z,0
2017-02-20T06:31:28.909Z,0
2017-02-20T06:32:40.351Z,0
2017-02-20T06:33:51.779Z,0
2017-02-20T06:35:03.218Z,0
2017-02-20T06:36:14.697Z,0
2017-02-20T06:37:26.321Z,0
2017-02-20T06:38:37.977Z,0
2017-02-20T06:39:49.418Z,0
2017-02-20T06:41:00.848Z,0
2017-02-20T06:42:12.332Z,0
2017-02-20T06:43:23.777Z,0
2017-02-20T06:44:35.253Z,5
2017-02-20T06:45:46.705Z,5
2017-02-20T06:46:58.142Z,5
2017-02-20T06:48:09.833Z,5
2017-02-20T06:49:21.502Z,5
2017-02-20T06:50:32.920Z,5
2017-02-20T06:51:44.564Z,5
2017-02-20T06:52:56.212Z,10
2017-02-20T06:54:07.717Z,10
2017-02-20T06:55:19.349Z,10
2017-02-20T06:56:30.809Z,10
2017-02-20T06:57:42.254Z,15
2017-02-20T06:58:53.872Z,15
2017-02-20T07:00:05.371Z,10
2017-02-20T07:01:16.809Z,10
2017-02-20T07:02:28.241Z,10
2017-02-20T07:03:39.700Z,15
2017-02-20T07:04:51.136Z,15
2017-02-20T07:06:02.820Z,15
2017-02-20T07:07:14.269Z,15
2017-02-20T07:08:25.707Z,15
2017-02-20T07:09:37.164Z,15
2017-02-20T07:10:48.641Z,15
2017-02-20T07:12:00.123Z,20
2017-02-20T07:13:11.556Z,20
2017-02-20T07:14:22.982Z,20
2017-02-20T07:15:34.416Z,15
2017-02-20T07:16:45.882Z,20
2017-02-20T07:17:57.402Z,20
2017-02-20T07:19:09.044Z,20
2017-02-20T07:20:20.476Z,20
2017-02-20T07:21:31.912Z,20
2017-02-20T07:22:43.354Z,20
2017-02-20T07:23:55.039Z,20
2017-02-20T07:25:06.474Z,20
2017-02-20T07:26:17.921Z,20
2017-02-20T07:27:29.573Z,25
2017-02-20T07:28:41.223Z,20
2017-02-20T07:29:52.708Z,25
2017-02-20T07:31:04.157Z,25
2017-02-20T07:32:15.583Z,25
2017-02-20T07:33:27.021Z,25
2017-02-20T07:34:38.462Z,25
2017-02-20T07:35:50.169Z,25
2017-02-20T07:37:01.634Z,25
2017-02-20T07:38:13.084Z,30
2017-02-20T07:39:24.509Z,35
2017-02-20T07:40:35.941Z,35
2017-02-20T07:41:47.655Z,35
2017-02-20T07:42:59.108Z,35
2017-02-20T07:44:10.548Z,35
2017-02-20T07:45:21.977Z,35
2017-02-20T07:46:33.401Z,35
2017-02-20T07:47:44.899Z,35
2017-02-20T07:48:56.340Z,35
2017-02-20T07:50:07.775Z,35
2017-02-20T07:51:19.213Z,35
2017-02-20T07:52:30.654Z,35
2017-02-20T07:53:42.150Z,40
2017-02-20T07:54:53.611Z,35
2017-02-20T07:56:05.047Z,40
2017-02-20T07:57:16.489Z,40
2017-02-20T07:58:28.185Z,40
2017-02-20T07:59:39.635Z,45
2017-02-20T08:00:51.088Z,45
2017-02-20T08:02:02.551Z,45
2017-02-20T08:03:14.011Z,40
2017-02-20T08:04:25.513Z,40
2017-02-20T08:05:36.953Z,45
2017-02-20T08:06:48.415Z,40
2017-02-20T08:08:00.255Z,40
2017-02-20T08:09:11.687Z,40
2017-02-20T08:10:23.200Z,40
2017-02-20T08:11:34.664Z,40
2017-02-20T08:12:46.093Z,45
2017-02-20T08:13:57.544Z,40
2017-02-20T08:15:08.982Z,45
2017-02-20T08:16:20.469Z,40
2017-02-20T08:17:31.907Z,45
2017-02-20T08:18:43.331Z,45
2017-02-20T08:19:54.769Z,45
2017-02-20T08:21:06.199Z,50
2017-02-20T08:22:17.691Z,50
2017-02-20T08:23:29.141Z,50
2017-02-20T08:24:40.586Z,45
2017-02-20T08:25:52.214Z,45
2017-02-20T08:27:03.855Z,40
2017-02-20T08:28:15.750Z,40
2017-02-20T08:29:27.178Z,50
2017-02-20T08:30:38.614Z,45
2017-02-20T08:31:50.079Z,45
2017-02-20T08:33:01.510Z,50
2017-02-20T08:34:13.026Z,50
2017-02-20T08:35:24.674Z,50
2017-02-20T08:36:36.138Z,55
2017-02-20T08:37:47.776Z,50
2017-02-20T08:38:59.223Z,55
2017-02-20T08:40:10.740Z,55
2017-02-20T08:41:22.415Z,50
2017-02-20T08:42:34.059Z,45
2017-02-20T08:43:45.517Z,50
2017-02-20T08:44:56.981Z,50
2017-02-20T08:46:08.459Z,40
2017-02-20T08:47:19.904Z,45
2017-02-20T08:48:31.333Z,40
2017-02-20T08:49:43.008Z,45
2017-02-20T08:50:54.649Z,45
2017-02-20T08:52:06.126Z,40
2017-02-20T08:53:17.561Z,35
2017-02-20T08:54:29.027Z,45
2017-02-20T08:55:40.464Z,45
2017-02-20T08:56:51.914Z,50
2017-02-20T08:58:03.396Z,45
2017-02-20T08:59:14.864Z,50
2017-02-20T09:00:26.310Z,50
2017-02-20T09:01:37.750Z,50
2017-02-20T09:02:49.171Z,50
2017-02-20T09:04:00.653Z,50
2017-02-20T09:05:12.081Z,50
2017-02-20T09:06:23.539Z,50
2017-02-20T09:07:34.983Z,50
2017-02-20T09:08:46.621Z,50
2017-02-20T09:09:58.118Z,60
2017-02-20T09:11:09.562Z,70
2017-02-20T09:12:21.009Z,60
2017-02-20T09:13:32.452Z,60
2017-02-20T09:14:43.885Z,55
2017-02-20T09:15:55.366Z,55
2017-02-20T09:17:06.816Z,55
2017-02-20T09:18:18.249Z,55
2017-02-20T09:19:29.690Z,50
2017-02-20T09:20:41.131Z,50
2017-02-20T09:21:52.638Z,50
2017-02-20T09:23:04.092Z,50
2017-02-20T09:24:15.740Z,50
2017-02-20T09:25:27.210Z,55
2017-02-20T09:26:38.651Z,55
2017-02-20T09:27:50.342Z,55
2017-02-20T09:29:01.801Z,55
2017-02-20T09:30:13.242Z,60
2017-02-20T09:31:24.706Z,65
2017-02-20T09:32:36.161Z,70
2017-02-20T09:33:47.634Z,65
2017-02-20T09:34:59.059Z,55
2017-02-20T09:36:10.501Z,55
2017-02-20T09:37:21.970Z,60
2017-02-20T09:38:33.600Z,65
2017-02-20T09:39:45.498Z,60
2017-02-20T09:40:57.336Z,75
2017-02-20T09:42:08.799Z,65
2017-02-20T09:43:20.251Z,60
2017-02-20T09:44:31.689Z,60
2017-02-20T09:45:43.184Z,65
2017-02-20T09:46:54.639Z,60
2017-02-20T09:48:06.075Z,65
2017-02-20T09:49:17.534Z,65
2017-02-20T09:50:29.006Z,65
2017-02-20T09:51:40.511Z,70
2017-02-20T09:52:51.943Z,60
2017-02-20T09:54:03.388Z,60
2017-02-20T09:55:14.829Z,60
2017-02-20T09:56:26.272Z,60
2017-02-20T09:57:37.750Z,65
2017-02-20T09:58:49.190Z,65
2017-02-20T10:00:00.631Z,70
2017-02-20T10:01:12.065Z,70
2017-02-20T10:02:23.730Z,75
2017-02-20T10:03:35.212Z,75
2017-02-20T10:04:46.664Z,80
2017-02-20T10:05:58.332Z,75
2017-02-20T10:07:09.767Z,80
2017-02-20T10:08:21.204Z,80
2017-02-20T10:09:32.691Z,80
2017-02-20T10:10:44.132Z,85
2017-02-20T10:11:55.568Z,90
2017-02-20T10:13:07.019Z,95
2017-02-20T10:14:18.669Z,85
2017-02-20T10:15:30.188Z,100
2017-02-20T10:16:41.626Z,85
2017-02-20T10:17:53.249Z,65
2017-02-20T10:19:04.739Z,60
2017-02-20T10:20:16.371Z,70
2017-02-20T10:21:27.873Z,95
2017-02-20T10:22:39.320Z,85
2017-02-20T10:23:50.757Z,95
2017-02-20T10:25:02.403Z,90
2017-02-20T10:26:13.845Z,95
2017-02-20T10:27:25.340Z,100
2017-02-20T10:28:36.777Z,90
2017-02-20T10:29:48.409Z,95
2017-02-20T10:30:59.847Z,95
2017-02-20T10:32:11.276Z,100
2017-02-20T10:33:22.769Z,105
2017-02-20T10:34:34.231Z,100
2017-02-20T10:35:46.073Z,100
2017-02-20T10:36:57.507Z,95
2017-02-20T10:38:08.942Z,90
2017-02-20T10:39:20.435Z,85
2017-02-20T10:40:31.854Z,70
2017-02-20T10:41:43.291Z,65
2017-02-20T10:42:54.932Z,70
2017-02-20T10:44:06.374Z,85
2017-02-20T10:45:17.827Z,95
2017-02-20T10:46:29.459Z,105
2017-02-20T10:47:41.118Z,115
2017-02-20T10:48:52.754Z,110
2017-02-20T10:50:04.270Z,115
2017-02-20T10:51:15.718Z,105
2017-02-20T10:52:27.163Z,90
2017-02-20T10:53:38.996Z,70
2017-02-20T10:54:50.430Z,65
2017-02-20T10:56:01.926Z,75
2017-02-20T10:57:13.372Z,70
2017-02-20T10:58:24.807Z,65
2017-02-20T10:59:36.457Z,65
2017-02-20T11:00:47.895Z,65
2017-02-20T11:01:59.584Z,70
2017-02-20T11:03:11.007Z,70
2017-02-20T11:04:22.438Z,75
2017-02-20T11:05:33.878Z,100
2017-02-20T11:06:45.322Z,100
2017-02-20T11:07:56.793Z,100
2017-02-20T11:09:08.230Z,90
2017-02-20T11:10:19.674Z,95
2017-02-20T11:11:31.305Z,120
2017-02-20T11:12:42.729Z,115
2017-02-20T11:13:54.223Z,125
2017-02-20T11:15:05.669Z,110
2017-02-20T11:16:17.100Z,100
2017-02-20T11:17:28.556Z,100
2017-02-20T11:18:40.408Z,100
2017-02-20T11:19:51.935Z,90
2017-02-20T11:21:03.371Z,95
2017-02-20T11:22:15.015Z,85
2017-02-20T11:23:26.448Z,75
2017-02-20T11:24:38.084Z,80
2017-02-20T11:25:49.575Z,85
2017-02-20T11:27:01.003Z,85
2017-02-20T11:28:12.447Z,80
2017-02-20T11:29:23.867Z,90
2017-02-20T11:30:35.295Z,90
2017-02-20T11:31:46.798Z,90
2017-02-20T11:32:58.890Z,90
2017-02-20T11:34:10.333Z,85
2017-02-20T11:35:21.778Z,75
2017-02-20T11:36:33.213Z,75
2017-02-20T11:37:44.711Z,80
2017-02-20T11:38:56.151Z,90
2017-02-20T11:40:07.606Z,85
2017-02-20T11:41:19.047Z,80
2017-02-20T11:42:30.471Z,80
2017-02-20T11:43:41.971Z,75
2017-02-20T11:44:53.410Z,90
2017-02-20T11:46:04.843Z,85
2017-02-20T11:47:16.270Z,85
2017-02-20T11:48:27.718Z,95
2017-02-20T11:49:39.207Z,75
2017-02-20T11:50:50.848Z,70
2017-02-20T11:52:02.318Z,75
2017-02-20T11:53:13.770Z,75
2017-02-20T11:54:25.206Z,80
2017-02-20T11:55:36.703Z,85
2017-02-20T11:56:48.122Z,85
2017-02-20T11:57:59.767Z,85
2017-02-20T11:59:11.202Z,85
2017-02-20T12:00:22.631Z,95
2017-02-20T12:01:34.157Z,90
2017-02-20T12:02:45.592Z,85
2017-02-20T12:03:57.018Z,105
2017-02-20T12:05:08.652Z,90
2017-02-20T12:06:20.083Z,100
2017-02-20T12:07:31.826Z,115
2017-02-20T12:08:43.484Z,135
2017-02-20T12:09:54.911Z,145
2017-02-20T12:11:06.356Z,170
2017-02-20T12:12:17.807Z,145
2017-02-20T12:13:29.295Z,120
2017-02-20T12:14:40.746Z,120
2017-02-20T12:15:52.197Z,120
2017-02-20T12:17:03.638Z,120
2017-02-20T12:18:15.086Z,120
2017-02-20T12:19:26.574Z,115
2017-02-20T12:20:38.015Z,125
2017-02-20T12:21:49.455Z,145
2017-02-20T12:23:00.895Z,140
2017-02-20T12:24:12.320Z,135
2017-02-20T12:25:23.805Z,165
2017-02-20T12:26:35.460Z,175
2017-02-20T12:27:46.910Z,195
2017-02-20T12:28:58.372Z,135
2017-02-20T12:30:09.831Z,110
2017-02-20T12:31:21.331Z,130
2017-02-20T12:32:32.814Z,110
2017-02-20T12:33:44.258Z,115
2017-02-20T12:34:55.708Z,105
2017-02-20T12:36:07.159Z,100
2017-02-20T12:37:18.848Z,110
2017-02-20T12:38:30.282Z,105
2017-02-20T12:39:41.723Z,100
2017-02-20T12:40:53.156Z,90
2017-02-20T12:42:04.596Z,85
2017-02-20T12:43:16.089Z,100
2017-02-20T12:44:27.537Z,80
2017-02-20T12:45:38.977Z,90
2017-02-20T12:46:50.419Z,90
2017-02-20T12:48:01.866Z,100
2017-02-20T12:49:13.350Z,105
2017-02-20T12:50:24.785Z,95
2017-02-20T12:51:36.414Z,115
2017-02-20T12:52:47.859Z,110
2017-02-20T12:53:59.311Z,110
2017-02-20T12:55:10.796Z,120
2017-02-20T12:56:22.256Z,130
2017-02-20T12:57:33.723Z,115
2017-02-20T12:58:45.152Z,100
2017-02-20T12:59:56.600Z,105
2017-02-20T13:01:08.293Z,100
2017-02-20T13:02:19.720Z,125
2017-02-20T13:03:31.356Z,110
2017-02-20T13:04:42.794Z,100
2017-02-20T13:05:54.229Z,115
2017-02-20T13:07:05.947Z,105
2017-02-20T13:08:17.389Z,100
2017-02-20T13:09:28.827Z,120
2017-02-20T13:10:40.260Z,120
2017-02-20T13:11:51.695Z,115
2017-02-20T13:13:03.188Z,105
2017-02-20T13:14:14.629Z,100
2017-02-20T13:15:26.099Z,95
2017-02-20T13:16:37.747Z,100
2017-02-20T13:17:49.181Z,100
2017-02-20T13:19:00.661Z,95
2017-02-20T13:20:12.132Z,85
2017-02-20T13:21:23.575Z,90
2017-02-20T13:22:35.008Z,95
2017-02-20T13:23:46.460Z,95
2017-02-20T13:24:58.152Z,85
2017-02-20T13:26:09.595Z,85
2017-02-20T13:27:21.034Z,80
2017-02-20T13:28:32.482Z,80
2017-02-20T13:29:43.927Z,90
2017-02-20T13:30:55.415Z,70
2017-02-20T13:32:06.856Z,75
2017-02-20T13:33:18.281Z,80
2017-02-20T13:34:29.740Z,75
2017-02-20T13:35:41.178Z,85
2017-02-20T13:36:52.663Z,90
2017-02-20T13:38:04.306Z,95
2017-02-20T13:39:15.745Z,100
2017-02-20T13:40:27.173Z,95
2017-02-20T13:41:38.625Z,85
2017-02-20T13:42:50.096Z,70
2017-02-20T13:44:01.547Z,75
2017-02-20T13:45:12.981Z,75
2017-02-20T13:46:24.433Z,85
2017-02-20T13:47:35.869Z,95
2017-02-20T13:48:47.354Z,80
2017-02-20T13:49:59.033Z,85
2017-02-20T13:51:10.460Z,70
2017-02-20T13:52:21.937Z,65
2017-02-20T13:53:33.594Z,70
2017-02-20T13:54:45.094Z,65
2017-02-20T13:55:56.561Z,60
2017-02-20T13:57:07.993Z,55
2017-02-20T13:58:20.045Z,50
2017-02-20T13:59:31.487Z,55
2017-02-20T14:00:42.971Z,55
2017-02-20T14:01:54.599Z,60
2017-02-20T14:03:06.034Z,60
2017-02-20T14:04:17.479Z,55
2017-02-20T14:05:28.916Z,55
2017-02-20T14:06:40.396Z,55
2017-02-20T14:07:51.856Z,55
2017-02-20T14:09:03.293Z,60
2017-02-20T14:10:14.935Z,60
2017-02-20T14:11:26.574Z,65
2017-02-20T14:12:38.067Z,65
2017-02-20T14:13:49.495Z,65
2017-02-20T14:15:00.940Z,65
2017-02-20T14:16:12.384Z,70
2017-02-20T14:17:23.815Z,65
2017-02-20T14:18:35.518Z,65
2017-02-20T14:19:46.997Z,70
2017-02-20T14:20:58.440Z,75
2017-02-20T14:22:10.083Z,75
2017-02-20T14:23:21.524Z,75
2017-02-20T14:24:33.221Z,70
2017-02-20T14:25:44.669Z,70
2017-02-20T14:26:56.122Z,70
2017-02-20T14:28:07.566Z,65
2017-02-20T14:29:19.004Z,65
2017-02-20T14:30:30.440Z,65
2017-02-20T14:31:41.864Z,55
2017-02-20T14:32:53.321Z,55
2017-02-20T14:34:04.766Z,55
2017-02-20T14:35:16.267Z,55
2017-02-20T14:36:28.113Z,55
2017-02-20T14:37:39.542Z,50
2017-02-20T14:38:51.196Z,50
2017-02-20T14:40:02.643Z,50
2017-02-20T14:41:14.132Z,55
2017-02-20T14:42:25.576Z,50
2017-02-20T14:43:37.007Z,50
2017-02-20T14:44:48.454Z,50
2017-02-20T14:45:59.911Z,55
2017-02-20T14:47:11.401Z,60
2017-02-20T14:48:22.848Z,65
2017-02-20T14:49:34.294Z,65
2017-02-20T14:50:45.931Z,60
2017-02-20T14:51:57.378Z,55
2017-02-20T14:53:08.850Z,55
2017-02-20T14:54:20.307Z,60
2017-02-20T14:55:31.743Z,60
2017-02-20T14:56:43.180Z,60
2017-02-20T14:57:54.814Z,50
2017-02-20T14:59:06.311Z,55
2017-02-20T15:00:17.742Z,50
2017-02-20T15:01:29.175Z,50
2017-02-20T15:02:40.638Z,45
2017-02-20T15:03:52.060Z,45
2017-02-20T15:05:03.507Z,50
2017-02-20T15:06:14.958Z,50
2017-02-20T15:07:26.409Z,50
2017-02-20T15:08:37.873Z,50
2017-02-20T15:09:49.361Z,45
2017-02-20T15:11:00.802Z,50
2017-02-20T15:12:12.257Z,40
2017-02-20T15:13:23.692Z,40
2017-02-20T15:14:35.133Z,45
2017-02-20T15:15:46.634Z,40
2017-02-20T15:16:58.292Z,40
2017-02-20T15:18:09.722Z,35
2017-02-20T15:19:21.165Z,35
2017-02-20T15:20:32.607Z,35
2017-02-20T15:21:44.116Z,40
2017-02-20T15:22:55.554Z,50
2017-02-20T15:24:06.992Z,45
2017-02-20T15:25:18.435Z,40
2017-02-20T15:26:29.868Z,40
2017-02-20T15:27:41.348Z,40
2017-02-20T15:28:52.788Z,45
2017-02-20T15:30:04.241Z,40
2017-02-20T15:31:15.874Z,40
2017-02-20T15:32:27.325Z,35
2017-02-20T15:33:38.806Z,35
2017-02-20T15:34:50.261Z,30
2017-02-20T15:36:01.684Z,25
2017-02-20T15:37:13.130Z,40
2017-02-20T15:38:24.778Z,45
2017-02-20T15:39:36.283Z,40
2017-02-20T15:40:47.744Z,35
2017-02-20T15:41:59.183Z,40
2017-02-20T15:43:10.630Z,50
2017-02-20T15:44:22.064Z,45
2017-02-20T15:45:33.559Z,45
2017-02-20T15:46:45.209Z,40
2017-02-20T15:47:56.637Z,40
2017-02-20T15:49:08.273Z,30
2017-02-20T15:50:19.914Z,40
2017-02-20T15:51:31.400Z,30
2017-02-20T15:52:42.832Z,30
2017-02-20T15:53:54.486Z,25
2017-02-20T15:55:06.151Z,20
2017-02-20T15:56:17.584Z,25
2017-02-20T15:57:29.064Z,25
2017-02-20T15:58:40.510Z,20
2017-02-20T15:59:51.950Z,20
2017-02-20T16:01:03.383Z,15
2017-02-20T16:02:14.816Z,10
2017-02-20T16:03:26.318Z,10
2017-02-20T16:04:37.763Z,10
2017-02-20T16:05:49.223Z,10
2017-02-20T16:07:00.660Z,10
2017-02-20T16:08:12.333Z,10
2017-02-20T16:09:23.821Z,10
2017-02-20T16:10:35.261Z,10
2017-02-20T16:11:46.698Z,10
2017-02-20T16:12:58.128Z,10
2017-02-20T16:14:09.557Z,10
2017-02-20T16:15:21.246Z,10
2017-02-20T16:16:32.686Z,5
2017-02-20T16:17:44.150Z,5
2017-02-20T16:18:55.616Z,5
2017-02-20T16:20:07.054Z,5
2017-02-20T16:21:18.566Z,5
2017-02-20T16:22:30.028Z,5
2017-02-20T16:23:41.469Z,5
2017-02-20T16:24:52.922Z,0
2017-02-20T16:26:04.368Z,0
2017-02-20T16:27:16.074Z,0
2017-02-20T16:28:27.533Z,0
2017-02-20T16:29:39.009Z,0
2017-02-20T16:30:50.469Z,0
2017-02-20T16:32:01.905Z,0
2017-02-20T16:33:13.408Z,0
2017-02-20T16:34:24.861Z,0
2017-02-20T16:35:36.504Z,0
2017-02-20T16:36:47.963Z,0
2017-02-20T16:37:59.396Z,0
2017-02-20T16:39:11.084Z,0
2017-02-20T16:40:22.541Z,0
2017-02-20T16:41:34.013Z,0
2017-02-20T16:42:45.455Z,0
2017-02-20T16:43:56.894Z,0
2017-02-20T16:45:08.412Z,0
2017-02-20T16:46:19.849Z,0
2017-02-20T16:47:31.507Z,0
2017-02-20T16:48:42.965Z,0
2017-02-20T16:49:54.418Z,0
2017-02-20T16:51:06.318Z,0
2017-02-20T16:52:17.976Z,0
2017-02-20T16:53:29.420Z,0
2017-02-20T16:54:40.870Z,0
2017-02-20T16:55:52.294Z,0
2017-02-20T16:57:03.995Z,0
2017-02-20T16:58:15.445Z,0
2017-02-20T16:59:26.906Z,0
2017-02-20T17:00:38.357Z,0
2017-02-20T17:01:49.800Z,0
2017-02-20T17:03:01.300Z,0
2017-02-20T17:04:13.147Z,0
2017-02-20T17:05:24.605Z,0
2017-02-20T17:06:36.245Z,0
2017-02-20T17:07:47.691Z,0
2017-02-20T17:08:59.186Z,0
2017-02-20T17:10:10.834Z,0
2017-02-20T17:11:22.286Z,0
2017-02-20T17:12:33.734Z,0